createdAt,value
2019-02-16T00:00:06.181Z,309.55
2019-02-16T00:01:21.233Z,309.49
2019-02-16T00:04:11.745Z,309.73
2019-02-16T00:07:15.237Z,309.55
2019-02-16T00:11:18.468Z,309.24
2019-02-16T00:12:31.422Z,308.74
2019-02-16T00:13:18.467Z,308.94
2019-02-16T00:14:20.225Z,309.75
2019-02-16T00:15:19.102Z,309.18
2019-02-16T00:16:19.151Z,308.79
2019-02-16T00:17:21.539Z,308.56
2019-02-16T00:18:18.628Z,307.84
2019-02-16T00:19:19.252Z,308.80
2019-02-16T00:22:41.001Z,308.51
2019-02-16T00:23:42.991Z,308.78
2019-02-16T00:24:42.085Z,308.68
2019-02-16T00:25:42.010Z,308.79
2019-02-16T00:26:42.227Z,307.14
2019-02-16T00:27:41.499Z,308.37
2019-02-16T00:28:41.401Z,307.30
2019-02-16T00:29:41.400Z,307.34
2019-02-16T00:30:42.609Z,307.22
2019-02-16T00:31:41.191Z,307.14
2019-02-16T00:32:41.473Z,308.18
2019-02-16T00:33:40.816Z,307.36
2019-02-16T00:34:40.814Z,307.20
2019-02-16T00:35:40.813Z,308.32
2019-02-16T00:36:40.815Z,307.88
2019-02-16T00:37:40.806Z,307.13
2019-02-16T00:38:40.760Z,308.64
2019-02-16T00:39:40.755Z,309.08
2019-02-16T00:40:40.750Z,307.67
2019-02-16T00:41:40.729Z,307.77
2019-02-16T00:42:40.733Z,308.24
2019-02-16T00:43:40.716Z,307.94
2019-02-16T00:44:40.716Z,307.88
2019-02-16T00:45:40.700Z,308.49
2019-02-16T00:46:40.698Z,307.77
2019-02-16T00:47:40.664Z,308.75
2019-02-16T00:48:40.656Z,308.04
2019-02-16T00:49:40.673Z,309.39
2019-02-16T00:50:40.654Z,309.50
2019-02-16T00:51:40.628Z,308.67
2019-02-16T00:52:40.624Z,309.50
2019-02-16T00:53:40.616Z,309.16
2019-02-16T00:54:40.610Z,309.60
2019-02-16T00:55:40.577Z,310.15
2019-02-16T00:56:48.606Z,309.44
2019-02-16T00:57:41.323Z,310.00
2019-02-16T00:58:40.556Z,309.85
2019-02-16T00:59:40.866Z,309.94
2019-02-16T01:00:40.724Z,309.96
2019-02-16T01:01:40.506Z,309.76
2019-02-16T01:02:40.483Z,310.39
2019-02-16T01:03:40.513Z,309.83
2019-02-16T01:04:40.540Z,310.70
2019-02-16T01:05:40.455Z,310.00
2019-02-16T01:06:40.506Z,309.79
2019-02-16T01:07:41.334Z,309.80
2019-02-16T01:08:40.456Z,310.12
2019-02-16T01:09:40.471Z,310.19
2019-02-16T01:10:40.453Z,309.73
2019-02-16T01:11:40.418Z,310.16
2019-02-16T01:12:40.394Z,309.70
2019-02-16T01:13:40.391Z,310.02
2019-02-16T01:14:40.402Z,310.19
2019-02-16T01:15:40.372Z,309.63
2019-02-16T01:16:40.374Z,309.36
2019-02-16T01:17:40.395Z,309.94
2019-02-16T01:18:40.352Z,309.42
2019-02-16T01:19:40.338Z,309.69
2019-02-16T01:20:40.322Z,310.10
2019-02-16T01:21:40.301Z,309.84
2019-02-16T01:22:40.317Z,310.01
2019-02-16T01:23:40.276Z,309.60
2019-02-16T01:24:40.276Z,309.93
2019-02-16T01:25:40.295Z,309.33
2019-02-16T01:26:40.248Z,309.41
2019-02-16T01:27:40.252Z,309.16
2019-02-16T01:28:40.257Z,309.01
2019-02-16T01:29:40.234Z,308.84
2019-02-16T01:30:40.816Z,309.10
2019-02-16T01:31:40.177Z,309.27
2019-02-16T01:32:40.176Z,309.22
2019-02-16T01:33:40.181Z,309.29
2019-02-16T01:34:40.160Z,308.95
2019-02-16T01:35:40.142Z,308.75
2019-02-16T01:36:40.174Z,309.20
2019-02-16T01:37:40.138Z,309.24
2019-02-16T01:38:40.125Z,308.97
2019-02-16T01:39:40.199Z,309.23
2019-02-16T01:40:40.196Z,309.31
2019-02-16T01:41:40.081Z,309.71
2019-02-16T01:42:40.105Z,309.61
2019-02-16T01:43:40.062Z,309.40
2019-02-16T01:44:40.102Z,309.07
2019-02-16T01:45:40.071Z,309.14
2019-02-16T01:46:40.016Z,309.19
2019-02-16T01:47:40.061Z,309.25
2019-02-16T01:48:40.037Z,309.56
2019-02-16T01:49:40.014Z,309.00
2019-02-16T01:50:39.998Z,308.39
2019-02-16T01:51:39.955Z,308.65
2019-02-16T01:52:39.953Z,308.72
2019-02-16T01:53:39.976Z,308.51
2019-02-16T01:54:39.976Z,309.00
2019-02-16T01:55:39.941Z,308.32
2019-02-16T01:56:39.938Z,308.15
2019-02-16T01:57:39.938Z,308.49
2019-02-16T01:58:39.899Z,308.33
2019-02-16T01:59:39.905Z,308.83
2019-02-16T02:00:39.907Z,308.56
2019-02-16T02:01:39.863Z,309.05
2019-02-16T02:02:39.846Z,308.57
2019-02-16T02:03:39.852Z,308.24
2019-02-16T02:04:39.843Z,308.60
2019-02-16T02:05:39.866Z,308.44
2019-02-16T02:06:39.839Z,308.57
2019-02-16T02:07:39.837Z,309.06
2019-02-16T02:08:40.335Z,309.00
2019-02-16T02:09:39.848Z,308.74
2019-02-16T02:10:39.880Z,308.88
2019-02-16T02:11:39.809Z,309.24
2019-02-16T02:12:39.756Z,308.67
2019-02-16T02:13:39.724Z,309.12
2019-02-16T02:14:39.734Z,307.85
2019-02-16T02:15:39.736Z,308.23
2019-02-16T02:16:39.775Z,308.00
2019-02-16T02:17:39.789Z,308.25
2019-02-16T02:18:39.674Z,307.56
2019-02-16T02:19:39.664Z,308.01
2019-02-16T02:20:39.678Z,308.05
2019-02-16T02:21:41.465Z,307.76
2019-02-16T02:22:39.649Z,307.14
2019-02-16T02:23:39.670Z,307.78
2019-02-16T02:24:39.617Z,308.44
2019-02-16T02:25:39.606Z,307.10
2019-02-16T02:26:39.621Z,308.25
2019-02-16T02:27:39.585Z,308.13
2019-02-16T02:28:39.598Z,308.12
2019-02-16T02:29:39.614Z,307.90
2019-02-16T02:30:39.597Z,307.11
2019-02-16T02:31:39.587Z,307.27
2019-02-16T02:32:39.621Z,307.61
2019-02-16T02:33:39.605Z,307.75
2019-02-16T02:34:39.612Z,307.87
2019-02-16T02:35:39.595Z,307.92
2019-02-16T02:36:39.509Z,307.48
2019-02-16T02:37:39.504Z,307.70
2019-02-16T02:38:39.450Z,307.98
2019-02-16T02:39:39.457Z,307.14
2019-02-16T02:40:39.611Z,308.19
2019-02-16T02:41:39.459Z,308.03
2019-02-16T02:42:46.484Z,307.65
2019-02-16T02:44:55.997Z,306.83
2019-02-16T02:45:56.019Z,308.05
2019-02-16T02:46:56.012Z,308.26
2019-02-16T02:48:03.905Z,308.04
2019-02-16T02:48:55.998Z,307.75
2019-02-16T02:49:55.945Z,308.21
2019-02-16T02:50:55.962Z,307.23
2019-02-16T02:51:55.945Z,307.53
2019-02-16T02:52:56.618Z,307.68
2019-02-16T02:53:55.901Z,308.39
2019-02-16T02:54:55.922Z,307.96
2019-02-16T02:55:55.900Z,308.37
2019-02-16T02:56:55.889Z,308.22
2019-02-16T02:57:55.848Z,309.04
2019-02-16T02:58:55.874Z,309.13
2019-02-16T02:59:55.846Z,307.98
2019-02-16T03:00:57.481Z,308.48
2019-02-16T03:01:55.819Z,309.49
2019-02-16T03:02:55.809Z,309.40
2019-02-16T03:03:55.803Z,308.86
2019-02-16T03:04:55.777Z,308.85
2019-02-16T03:05:55.813Z,308.84
2019-02-16T03:07:04.310Z,308.75
2019-02-16T03:07:55.762Z,308.83
2019-02-16T03:08:55.765Z,309.12
2019-02-16T03:09:55.771Z,308.77
2019-02-16T03:10:55.735Z,309.18
2019-02-16T03:11:55.713Z,309.12
2019-02-16T03:12:55.694Z,308.52
2019-02-16T03:13:55.689Z,309.82
2019-02-16T03:14:55.689Z,309.18
2019-02-16T03:15:55.695Z,309.36
2019-02-16T03:16:55.669Z,309.17
2019-02-16T03:17:55.657Z,308.77
2019-02-16T03:18:55.649Z,309.02
2019-02-16T03:19:55.669Z,309.87
2019-02-16T03:20:55.652Z,309.42
2019-02-16T03:22:02.474Z,309.42
2019-02-16T03:22:56.593Z,309.01
2019-02-16T03:23:55.586Z,309.30
2019-02-16T03:24:55.590Z,309.17
2019-02-16T03:25:55.605Z,309.44
2019-02-16T03:26:55.555Z,308.82
2019-02-16T03:27:55.556Z,309.77
2019-02-16T03:28:55.540Z,309.51
2019-02-16T03:29:55.541Z,310.02
2019-02-16T03:30:55.547Z,309.46
2019-02-16T03:31:55.521Z,309.20
2019-02-16T03:32:55.477Z,309.55
2019-02-16T03:33:55.515Z,309.84
2019-02-16T03:34:55.490Z,309.41
2019-02-16T03:35:55.683Z,309.46
2019-02-16T03:36:55.461Z,309.44
2019-02-16T03:37:55.412Z,309.12
2019-02-16T03:38:55.435Z,309.27
2019-02-16T03:39:55.425Z,309.53
2019-02-16T03:40:55.414Z,309.08
2019-02-16T03:41:55.404Z,309.62
2019-02-16T03:42:55.371Z,309.14
2019-02-16T03:43:55.401Z,309.36
2019-02-16T03:44:55.387Z,309.01
2019-02-16T03:45:55.362Z,309.08
2019-02-16T03:46:55.379Z,309.25
2019-02-16T03:47:55.343Z,309.06
2019-02-16T03:48:55.312Z,308.97
2019-02-16T03:49:55.306Z,309.00
2019-02-16T03:51:02.997Z,308.98
2019-02-16T03:52:12.877Z,308.65
2019-02-16T03:54:05.981Z,307.95
2019-02-16T03:55:13.763Z,308.53
2019-02-16T03:56:13.021Z,308.77
2019-02-16T03:57:12.974Z,308.89
2019-02-16T03:58:14.916Z,308.68
2019-02-16T04:00:16.535Z,307.57
2019-02-16T04:01:23.507Z,308.79
2019-02-16T04:02:23.519Z,309.00
2019-02-16T04:03:25.380Z,308.94
2019-02-16T04:04:24.896Z,308.52
2019-02-16T04:05:23.447Z,308.57
2019-02-16T04:06:23.971Z,308.70
2019-02-16T04:07:16.448Z,308.43
2019-02-16T04:08:16.443Z,308.23
2019-02-16T04:09:16.373Z,308.61
2019-02-16T04:10:16.375Z,308.77
2019-02-16T04:11:16.345Z,307.84
2019-02-16T04:12:16.364Z,308.30
2019-02-16T04:13:16.313Z,308.18
2019-02-16T04:14:16.320Z,307.96
2019-02-16T04:15:16.317Z,308.39
2019-02-16T04:16:16.310Z,308.48
2019-02-16T04:17:16.312Z,307.79
2019-02-16T04:18:16.295Z,307.88
2019-02-16T04:19:16.270Z,307.81
2019-02-16T04:20:16.247Z,308.02
2019-02-16T04:21:16.255Z,308.09
2019-02-16T04:22:24.330Z,308.17
2019-02-16T04:23:17.243Z,307.75
2019-02-16T04:24:16.246Z,308.13
2019-02-16T04:25:16.211Z,308.42
2019-02-16T04:26:16.203Z,308.01
2019-02-16T04:27:16.229Z,308.00
2019-02-16T04:28:16.202Z,308.09
2019-02-16T04:29:16.206Z,307.87
2019-02-16T04:30:16.177Z,307.98
2019-02-16T04:31:16.139Z,307.95
2019-02-16T04:32:16.502Z,308.74
2019-02-16T04:33:16.151Z,307.93
2019-02-16T04:34:16.135Z,308.64
2019-02-16T04:35:16.097Z,308.37
2019-02-16T04:36:16.089Z,308.43
2019-02-16T04:37:16.133Z,307.90
2019-02-16T04:38:16.071Z,308.22
2019-02-16T04:39:16.076Z,308.26
2019-02-16T04:40:23.080Z,308.44
2019-02-16T04:41:16.042Z,308.48
2019-02-16T04:42:16.048Z,308.46
2019-02-16T04:43:16.046Z,308.22
2019-02-16T04:44:16.056Z,307.98
2019-02-16T04:45:15.999Z,308.66
2019-02-16T04:46:15.987Z,308.25
2019-02-16T04:47:15.990Z,308.59
2019-02-16T04:48:15.988Z,308.21
2019-02-16T04:49:15.942Z,307.58
2019-02-16T04:50:15.951Z,308.41
2019-02-16T04:51:15.954Z,308.10
2019-02-16T04:52:15.924Z,307.59
2019-02-16T04:53:15.946Z,308.59
2019-02-16T04:54:15.890Z,307.87
2019-02-16T04:55:15.890Z,308.16
2019-02-16T04:56:15.875Z,308.05
2019-02-16T04:57:15.882Z,307.72
2019-02-16T04:58:15.913Z,308.02
2019-02-16T04:59:15.822Z,308.07
2019-02-16T05:00:15.837Z,308.12
2019-02-16T05:01:15.849Z,307.70
2019-02-16T05:02:15.831Z,308.15
2019-02-16T05:03:15.905Z,308.12
2019-02-16T05:04:15.810Z,307.16
2019-02-16T05:05:15.778Z,307.69
2019-02-16T05:06:15.768Z,307.75
2019-02-16T05:07:15.768Z,307.52
2019-02-16T05:08:15.748Z,308.32
2019-02-16T05:09:15.760Z,308.15
2019-02-16T05:10:15.731Z,308.23
2019-02-16T05:11:15.696Z,307.49
2019-02-16T05:12:15.699Z,307.81
2019-02-16T05:13:15.705Z,308.17
2019-02-16T05:14:16.491Z,308.67
2019-02-16T05:15:15.686Z,308.40
2019-02-16T05:16:15.668Z,308.12
2019-02-16T05:17:15.660Z,308.14
2019-02-16T05:18:15.671Z,308.66
2019-02-16T05:19:15.651Z,307.66
2019-02-16T05:20:16.497Z,308.13
2019-02-16T05:21:15.616Z,307.92
2019-02-16T05:22:15.626Z,308.61
2019-02-16T05:23:15.604Z,308.07
2019-02-16T05:24:16.002Z,308.78
2019-02-16T05:25:15.577Z,308.67
2019-02-16T05:26:15.558Z,308.68
2019-02-16T05:27:15.562Z,309.02
2019-02-16T05:28:15.536Z,308.53
2019-02-16T05:29:15.555Z,308.48
2019-02-16T05:30:16.533Z,308.99
2019-02-16T05:31:15.550Z,308.72
2019-02-16T05:32:15.495Z,308.44
2019-02-16T05:33:15.497Z,308.34
2019-02-16T05:34:15.512Z,308.88
2019-02-16T05:35:15.468Z,308.44
2019-02-16T05:36:15.468Z,308.47
2019-02-16T05:37:15.439Z,307.95
2019-02-16T05:38:15.448Z,308.64
2019-02-16T05:39:15.438Z,308.39
2019-02-16T05:40:15.408Z,308.45
2019-02-16T05:41:15.402Z,308.89
2019-02-16T05:42:15.411Z,309.02
2019-02-16T05:43:15.416Z,308.40
2019-02-16T05:44:15.397Z,308.10
2019-02-16T05:45:15.342Z,308.47
2019-02-16T05:46:15.339Z,308.45
2019-02-16T05:47:15.356Z,309.01
2019-02-16T05:48:15.385Z,308.73
2019-02-16T05:49:15.354Z,308.57
2019-02-16T05:50:15.301Z,309.08
2019-02-16T05:51:15.290Z,308.84
2019-02-16T05:52:15.285Z,308.84
2019-02-16T05:53:16.018Z,308.31
2019-02-16T05:54:15.277Z,308.78
2019-02-16T05:55:15.846Z,308.35
2019-02-16T05:56:16.234Z,309.39
2019-02-16T05:57:15.246Z,308.90
2019-02-16T05:58:15.639Z,308.83
2019-02-16T05:59:16.477Z,308.17
2019-02-16T06:00:15.438Z,308.58
2019-02-16T06:01:16.155Z,308.10
2019-02-16T06:02:15.494Z,308.04
2019-02-16T06:04:45.601Z,308.90
2019-02-16T06:05:47.434Z,308.94
2019-02-16T06:07:56.317Z,307.94
2019-02-16T06:08:56.304Z,308.85
2019-02-16T06:09:56.335Z,308.44
2019-02-16T06:10:56.269Z,308.62
2019-02-16T06:11:56.278Z,308.08
2019-02-16T06:14:25.240Z,308.49
2019-02-16T06:15:25.018Z,308.99
2019-02-16T06:16:24.923Z,309.00
2019-02-16T06:17:24.927Z,309.11
2019-02-16T06:18:24.880Z,308.58
2019-02-16T06:19:24.877Z,308.26
2019-02-16T06:20:24.876Z,308.45
2019-02-16T06:21:24.842Z,308.38
2019-02-16T06:22:24.847Z,308.96
2019-02-16T06:23:24.846Z,308.66
2019-02-16T06:24:24.872Z,309.22
2019-02-16T06:25:24.819Z,308.65
2019-02-16T06:26:24.768Z,308.98
2019-02-16T06:27:24.774Z,308.70
2019-02-16T06:28:24.764Z,308.80
2019-02-16T06:29:24.754Z,308.46
2019-02-16T06:30:24.745Z,308.74
2019-02-16T06:31:24.763Z,308.67
2019-02-16T06:32:24.740Z,308.46
2019-02-16T06:33:24.723Z,309.25
2019-02-16T06:34:24.695Z,308.36
2019-02-16T06:35:24.729Z,308.57
2019-02-16T06:36:25.214Z,308.86
2019-02-16T06:37:24.646Z,308.53
2019-02-16T06:38:24.708Z,308.35
2019-02-16T06:39:24.686Z,307.78
2019-02-16T06:40:24.685Z,308.16
2019-02-16T06:41:24.640Z,308.00
2019-02-16T06:42:24.626Z,307.97
2019-02-16T06:43:24.616Z,307.97
2019-02-16T06:44:24.585Z,306.93
2019-02-16T06:45:24.598Z,308.22
2019-02-16T06:46:24.560Z,308.67
2019-02-16T06:47:24.548Z,307.88
2019-02-16T06:48:24.583Z,308.21
2019-02-16T06:49:24.541Z,308.21
2019-02-16T06:50:24.563Z,307.57
2019-02-16T06:51:24.503Z,307.42
2019-02-16T06:52:24.501Z,308.53
2019-02-16T06:53:24.496Z,307.77
2019-02-16T06:54:24.481Z,308.21
2019-02-16T06:55:24.489Z,308.12
2019-02-16T06:56:24.467Z,307.91
2019-02-16T06:57:24.501Z,308.10
2019-02-16T06:58:24.437Z,307.23
2019-02-16T06:59:24.457Z,307.44
2019-02-16T07:00:24.437Z,306.68
2019-02-16T07:01:24.413Z,308.79
2019-02-16T07:02:24.407Z,308.21
2019-02-16T07:03:24.417Z,307.72
2019-02-16T07:04:24.391Z,308.42
2019-02-16T07:05:24.382Z,308.61
2019-02-16T07:06:24.377Z,308.55
2019-02-16T07:07:24.346Z,308.16
2019-02-16T07:08:24.356Z,308.40
2019-02-16T07:09:24.310Z,308.96
2019-02-16T07:10:24.314Z,308.63
2019-02-16T07:11:24.306Z,308.02
2019-02-16T07:12:24.298Z,308.50
2019-02-16T07:13:24.286Z,308.58
2019-02-16T07:14:24.277Z,308.40
2019-02-16T07:15:24.276Z,308.19
2019-02-16T07:16:24.258Z,308.78
2019-02-16T07:17:24.244Z,309.21
2019-02-16T07:18:24.268Z,308.60
2019-02-16T07:19:24.218Z,308.83
2019-02-16T07:20:24.226Z,308.90
2019-02-16T07:21:24.175Z,308.49
2019-02-16T07:22:24.188Z,308.41
2019-02-16T07:23:24.183Z,308.61
2019-02-16T07:24:24.158Z,308.97
2019-02-16T07:25:24.159Z,308.70
2019-02-16T07:26:24.162Z,309.33
2019-02-16T07:27:24.129Z,309.90
2019-02-16T07:28:24.128Z,310.17
2019-02-16T07:29:24.185Z,310.09
2019-02-16T07:30:24.755Z,310.23
2019-02-16T07:31:24.108Z,309.75
2019-02-16T07:32:24.718Z,310.25
2019-02-16T07:33:24.066Z,310.87
2019-02-16T07:34:24.056Z,310.78
2019-02-16T07:35:24.067Z,310.45
2019-02-16T07:36:24.053Z,310.33
2019-02-16T07:37:24.040Z,309.67
2019-02-16T07:38:24.038Z,310.33
2019-02-16T07:39:33.047Z,309.97
2019-02-16T07:40:24.049Z,309.14
2019-02-16T07:41:24.017Z,309.64
2019-02-16T07:42:24.000Z,309.78
2019-02-16T07:43:31.843Z,309.25
2019-02-16T07:44:23.956Z,308.70
2019-02-16T07:45:31.141Z,309.63
2019-02-16T07:46:31.962Z,308.91
2019-02-16T07:47:31.056Z,310.28
2019-02-16T07:48:31.089Z,308.62
2019-02-16T07:49:32.445Z,308.05
2019-02-16T07:50:30.944Z,307.73
2019-02-16T07:51:31.933Z,308.11
2019-02-16T07:52:31.447Z,308.08
2019-02-16T07:53:31.871Z,308.39
2019-02-16T07:54:31.890Z,308.00
2019-02-16T07:55:30.891Z,308.76
2019-02-16T07:56:23.856Z,308.21
2019-02-16T07:57:23.841Z,307.73
2019-02-16T07:58:24.497Z,306.12
2019-02-16T07:59:23.850Z,307.63
2019-02-16T08:00:23.771Z,307.92
2019-02-16T08:01:23.777Z,304.32
2019-02-16T08:02:23.757Z,308.29
2019-02-16T08:03:23.768Z,304.93
2019-02-16T08:04:23.722Z,305.92
2019-02-16T08:05:23.731Z,305.86
2019-02-16T08:06:23.765Z,306.20
2019-02-16T08:07:23.734Z,307.14
2019-02-16T08:08:23.687Z,307.31
2019-02-16T08:09:23.691Z,306.96
2019-02-16T08:10:23.678Z,305.92
2019-02-16T08:11:23.706Z,307.10
2019-02-16T08:12:23.668Z,306.80
2019-02-16T08:13:23.646Z,304.24
2019-02-16T08:14:23.617Z,305.22
2019-02-16T08:15:23.672Z,305.52
2019-02-16T08:16:23.620Z,306.24
2019-02-16T08:17:23.607Z,304.45
2019-02-16T08:18:23.595Z,305.06
2019-02-16T08:19:23.572Z,305.63
2019-02-16T08:20:23.559Z,304.70
2019-02-16T08:21:24.502Z,304.58
2019-02-16T08:22:23.551Z,304.22
2019-02-16T08:23:23.550Z,302.99
2019-02-16T08:24:23.520Z,304.00
2019-02-16T08:25:23.511Z,305.13
2019-02-16T08:26:23.528Z,301.27
2019-02-16T08:27:23.479Z,305.01
2019-02-16T08:28:23.479Z,303.54
2019-02-16T08:29:23.485Z,303.05
2019-02-16T08:30:23.463Z,304.22
2019-02-16T08:31:23.532Z,304.23
2019-02-16T08:32:23.468Z,303.81
2019-02-16T08:33:23.403Z,304.38
2019-02-16T08:34:23.418Z,305.26
2019-02-16T08:35:23.478Z,305.41
2019-02-16T08:36:23.401Z,305.60
2019-02-16T08:37:23.427Z,305.46
2019-02-16T08:38:23.355Z,305.88
2019-02-16T08:39:23.341Z,302.70
2019-02-16T08:40:23.350Z,305.67
2019-02-16T08:41:23.373Z,303.97
2019-02-16T08:42:23.539Z,303.25
2019-02-16T08:43:23.348Z,300.68
2019-02-16T08:44:23.319Z,305.02
2019-02-16T08:45:23.305Z,303.12
2019-02-16T08:46:23.277Z,301.50
2019-02-16T08:47:23.287Z,301.19
2019-02-16T08:48:23.265Z,302.13
2019-02-16T08:49:23.244Z,301.05
2019-02-16T08:50:23.293Z,300.36
2019-02-16T08:51:31.070Z,304.88
2019-02-16T08:52:30.606Z,304.10
2019-02-16T08:53:30.284Z,305.27
2019-02-16T08:54:23.246Z,303.41
2019-02-16T08:55:31.202Z,303.91
2019-02-16T08:56:23.185Z,300.23
2019-02-16T08:57:23.179Z,303.42
2019-02-16T08:58:23.263Z,302.42
2019-02-16T08:59:23.144Z,298.61
2019-02-16T09:00:23.150Z,305.28
2019-02-16T09:01:23.090Z,302.11
2019-02-16T09:02:23.111Z,304.73
2019-02-16T09:03:23.095Z,301.73
2019-02-16T09:04:23.111Z,302.37
2019-02-16T09:05:23.143Z,305.45
2019-02-16T09:06:23.068Z,299.17
2019-02-16T09:07:23.085Z,302.70
2019-02-16T09:08:23.063Z,302.00
2019-02-16T09:09:23.120Z,300.07
2019-02-16T09:10:23.056Z,302.45
2019-02-16T09:11:23.041Z,301.83
2019-02-16T09:12:23.031Z,302.78
2019-02-16T09:13:23.028Z,300.69
2019-02-16T09:14:23.010Z,302.08
2019-02-16T09:15:23.139Z,298.90
2019-02-16T09:16:22.963Z,302.51
2019-02-16T09:17:23.076Z,303.53
2019-02-16T09:18:22.929Z,301.63
2019-02-16T09:19:22.931Z,300.69
2019-02-16T09:20:22.919Z,303.38
2019-02-16T09:21:22.917Z,298.56
2019-02-16T09:22:22.894Z,303.19
2019-02-16T09:23:22.909Z,301.49
2019-02-16T09:24:22.855Z,301.39
2019-02-16T09:25:29.891Z,296.73
2019-02-16T09:26:22.838Z,302.43
2019-02-16T09:27:22.868Z,299.92
2019-02-16T09:28:22.843Z,300.01
2019-02-16T09:29:22.791Z,301.63
2019-02-16T09:30:22.801Z,302.97
2019-02-16T09:31:22.795Z,295.38
2019-02-16T09:32:22.777Z,298.43
2019-02-16T09:33:22.770Z,295.42
2019-02-16T09:34:22.747Z,297.14
2019-02-16T09:35:22.738Z,299.79
2019-02-16T09:36:22.737Z,295.51
2019-02-16T09:37:22.713Z,295.76
2019-02-16T09:38:22.756Z,300.14
2019-02-16T09:39:22.720Z,297.64
2019-02-16T09:40:22.686Z,298.66
2019-02-16T09:41:22.673Z,296.63
2019-02-16T09:42:22.677Z,297.25
2019-02-16T09:43:22.672Z,299.33
2019-02-16T09:44:22.637Z,300.11
2019-02-16T09:45:22.628Z,298.85
2019-02-16T09:46:22.624Z,298.19
2019-02-16T09:47:22.613Z,298.42
2019-02-16T09:48:22.632Z,302.07
2019-02-16T09:49:22.616Z,298.87
2019-02-16T09:50:22.584Z,300.77
2019-02-16T09:51:22.554Z,301.44
2019-02-16T09:52:31.982Z,301.81
2019-02-16T09:53:22.544Z,304.19
2019-02-16T09:54:22.568Z,304.25
2019-02-16T09:55:22.593Z,301.58
2019-02-16T09:56:22.534Z,301.66
2019-02-16T09:57:22.492Z,299.25
2019-02-16T09:58:22.481Z,298.98
2019-02-16T09:59:22.486Z,303.66
2019-02-16T10:00:22.484Z,300.70
2019-02-16T10:01:22.463Z,305.20
2019-02-16T10:02:22.476Z,299.85
2019-02-16T10:03:22.442Z,302.96
2019-02-16T10:04:22.452Z,304.02
2019-02-16T10:05:22.470Z,303.83
2019-02-16T10:06:22.406Z,304.62
2019-02-16T10:07:22.401Z,301.40
2019-02-16T10:08:22.413Z,304.74
2019-02-16T10:09:22.380Z,303.59
2019-02-16T10:10:22.387Z,302.59
2019-02-16T10:11:22.361Z,305.74
2019-02-16T10:12:22.322Z,304.48
2019-02-16T10:13:22.346Z,304.60
2019-02-16T10:14:22.331Z,302.76
2019-02-16T10:15:22.341Z,301.39
2019-02-16T10:16:22.296Z,304.55
2019-02-16T10:17:22.294Z,301.57
2019-02-16T10:18:22.277Z,303.94
2019-02-16T10:19:22.281Z,299.23
2019-02-16T10:20:22.264Z,299.28
2019-02-16T10:21:22.233Z,305.69
2019-02-16T10:22:22.230Z,297.42
2019-02-16T10:23:22.214Z,298.45
2019-02-16T10:24:22.214Z,303.13
2019-02-16T10:25:22.245Z,304.11
2019-02-16T10:26:22.195Z,298.32
2019-02-16T10:27:22.185Z,298.42
2019-02-16T10:28:22.177Z,298.90
2019-02-16T10:29:23.211Z,300.73
2019-02-16T10:30:22.150Z,303.17
2019-02-16T10:31:22.137Z,299.62
2019-02-16T10:32:22.130Z,303.71
2019-02-16T10:33:22.120Z,302.27
2019-02-16T10:34:22.247Z,303.86
2019-02-16T10:35:22.093Z,302.67
2019-02-16T10:36:22.105Z,300.88
2019-02-16T10:37:22.095Z,303.54
2019-02-16T10:38:22.694Z,298.73
2019-02-16T10:39:22.050Z,298.96
2019-02-16T10:40:22.166Z,303.81
2019-02-16T10:41:22.034Z,299.76
2019-02-16T10:42:22.020Z,303.30
2019-02-16T10:43:21.998Z,304.56
2019-02-16T10:44:22.006Z,301.52
2019-02-16T10:45:22.058Z,302.70
2019-02-16T10:46:23.792Z,302.42
2019-02-16T10:47:21.996Z,301.24
2019-02-16T10:48:21.960Z,303.43
2019-02-16T10:49:30.164Z,304.06
2019-02-16T10:50:22.135Z,301.80
2019-02-16T10:52:39.467Z,303.29
2019-02-16T10:53:39.547Z,299.23
2019-02-16T10:54:39.536Z,303.15
2019-02-16T10:55:39.459Z,300.82
2019-02-16T10:56:39.430Z,301.32
2019-02-16T10:57:39.495Z,305.58
2019-02-16T10:58:39.555Z,303.85
2019-02-16T10:59:39.440Z,300.09
2019-02-16T11:00:47.508Z,302.63
2019-02-16T11:01:39.681Z,299.15
2019-02-16T11:02:39.947Z,298.83
2019-02-16T11:03:39.409Z,298.73
2019-02-16T11:04:39.370Z,299.95
2019-02-16T11:05:39.379Z,304.46
2019-02-16T11:06:39.336Z,300.74
2019-02-16T11:07:39.858Z,303.64
2019-02-16T11:08:39.326Z,300.37
2019-02-16T11:09:39.291Z,301.69
2019-02-16T11:10:39.374Z,298.05
2019-02-16T11:11:39.323Z,301.74
2019-02-16T11:12:39.273Z,300.48
2019-02-16T11:13:40.256Z,303.93
2019-02-16T11:14:39.266Z,297.38
2019-02-16T11:15:39.268Z,302.11
2019-02-16T11:16:39.235Z,304.00
2019-02-16T11:17:39.210Z,302.74
2019-02-16T11:18:39.207Z,305.91
2019-02-16T11:19:39.215Z,298.94
2019-02-16T11:20:39.211Z,299.80
2019-02-16T11:21:39.886Z,303.93
2019-02-16T11:22:39.184Z,304.29
2019-02-16T11:23:39.148Z,301.27
2019-02-16T11:24:39.135Z,300.59
2019-02-16T11:25:39.143Z,303.30
2019-02-16T11:26:39.147Z,301.38
2019-02-16T11:27:47.907Z,305.16
2019-02-16T11:28:46.296Z,303.69
2019-02-16T11:29:47.144Z,307.33
2019-02-16T11:30:46.230Z,304.84
2019-02-16T11:31:46.127Z,300.17
2019-02-16T11:32:46.208Z,300.53
2019-02-16T11:33:48.064Z,300.79
2019-02-16T11:34:48.137Z,304.75
2019-02-16T11:35:46.303Z,305.21
2019-02-16T11:36:48.131Z,305.86
2019-02-16T11:37:39.090Z,299.55
2019-02-16T11:38:47.676Z,298.49
2019-02-16T11:39:47.755Z,303.45
2019-02-16T11:40:46.302Z,304.21
2019-02-16T11:41:46.075Z,301.97
2019-02-16T11:42:39.121Z,298.36
2019-02-16T11:43:40.964Z,304.48
2019-02-16T11:44:38.917Z,302.26
2019-02-16T11:45:38.945Z,305.38
2019-02-16T11:46:38.892Z,303.92
2019-02-16T11:47:38.920Z,303.80
2019-02-16T11:48:38.870Z,300.62
2019-02-16T11:49:38.871Z,299.74
2019-02-16T11:50:38.896Z,300.83
2019-02-16T11:51:38.855Z,302.57
2019-02-16T11:52:38.859Z,303.89
2019-02-16T11:53:38.836Z,301.84
2019-02-16T11:54:45.452Z,296.66
2019-02-16T11:55:39.878Z,297.36
2019-02-16T11:56:38.812Z,297.46
2019-02-16T11:57:38.807Z,299.36
2019-02-16T11:58:38.794Z,301.73
2019-02-16T11:59:38.803Z,299.31
2019-02-16T12:00:40.265Z,304.41
2019-02-16T12:01:40.728Z,305.68
2019-02-16T12:02:39.963Z,299.14
2019-02-16T12:03:38.754Z,298.08
2019-02-16T12:04:38.721Z,304.56
2019-02-16T12:05:38.714Z,299.86
2019-02-16T12:06:38.758Z,299.80
2019-02-16T12:07:38.705Z,298.72
2019-02-16T12:08:38.712Z,299.83
2019-02-16T12:09:38.790Z,304.53
2019-02-16T12:10:38.695Z,304.20
2019-02-16T12:11:38.715Z,302.42
2019-02-16T12:12:38.638Z,303.20
2019-02-16T12:13:38.650Z,303.17
2019-02-16T12:14:39.171Z,303.88
2019-02-16T12:15:38.616Z,299.75
2019-02-16T12:16:38.693Z,304.95
2019-02-16T12:17:38.579Z,303.90
2019-02-16T12:18:38.569Z,303.84
2019-02-16T12:19:38.582Z,295.63
2019-02-16T12:20:38.585Z,300.82
2019-02-16T12:21:38.587Z,299.59
2019-02-16T12:22:38.542Z,303.20
2019-02-16T12:23:38.512Z,301.74
2019-02-16T12:24:38.561Z,297.62
2019-02-16T12:25:38.514Z,294.00
2019-02-16T12:26:38.518Z,296.30
2019-02-16T12:27:38.489Z,293.55
2019-02-16T12:28:38.465Z,300.55
2019-02-16T12:29:38.463Z,295.15
2019-02-16T12:30:38.461Z,292.66
2019-02-16T12:31:46.980Z,300.41
2019-02-16T12:32:38.911Z,292.75
2019-02-16T12:33:38.498Z,292.97
2019-02-16T12:34:38.502Z,297.58
2019-02-16T12:35:38.466Z,291.64
2019-02-16T12:36:38.419Z,294.42
2019-02-16T12:37:38.385Z,293.71
2019-02-16T12:38:38.395Z,292.75
2019-02-16T12:39:38.365Z,291.88
2019-02-16T12:40:38.345Z,294.70
2019-02-16T12:41:38.399Z,295.10
2019-02-16T12:42:38.352Z,294.00
2019-02-16T12:43:38.336Z,292.69
2019-02-16T12:44:38.325Z,295.17
2019-02-16T12:45:38.329Z,297.31
2019-02-16T12:46:38.278Z,295.37